sensor_id;sensor_type;location;lat;lon;timestamp;P1;durP1;ratioP1;P2;durP2;ratioP2
18142;SDS011;9197;50.930;3.140;2023-02-11T00:02:08;14.77;;;6.60;;
18142;SDS011;9197;50.930;3.140;2023-02-11T00:04:36;9.17;;;6.10;;
18142;SDS011;9197;50.930;3.140;2023-02-11T00:07:03;12.43;;;6.40;;
18142;SDS011;9197;50.930;3.140;2023-02-11T00:09:32;17.00;;;8.07;;
18142;SDS011;9197;50.930;3.140;2023-02-11T00:12:00;19.93;;;7.20;;
18142;SDS011;9197;50.930;3.140;2023-02-11T00:14:27;12.27;;;6.77;;
18142;SDS011;9197;50.930;3.140;2023-02-11T00:16:54;13.80;;;6.80;;
18142;SDS011;9197;50.930;3.140;2023-02-11T00:19:22;15.30;;;7.20;;
18142;SDS011;9197;50.930;3.140;2023-02-11T00:21:49;15.80;;;6.50;;
18142;SDS011;9197;50.930;3.140;2023-02-11T00:24:17;15.90;;;7.07;;
18142;SDS011;9197;50.930;3.140;2023-02-11T00:26:45;11.53;;;6.60;;
18142;SDS011;9197;50.930;3.140;2023-02-11T00:29:13;16.47;;;7.33;;
18142;SDS011;9197;50.930;3.140;2023-02-11T00:31:40;12.87;;;6.33;;
18142;SDS011;9197;50.930;3.140;2023-02-11T00:34:08;14.67;;;7.07;;
18142;SDS011;9197;50.930;3.140;2023-02-11T00:36:35;11.87;;;6.97;;
18142;SDS011;9197;50.930;3.140;2023-02-11T00:39:03;13.27;;;7.40;;
18142;SDS011;9197;50.930;3.140;2023-02-11T00:41:30;14.53;;;6.87;;
18142;SDS011;9197;50.930;3.140;2023-02-11T00:43:59;10.77;;;7.03;;
18142;SDS011;9197;50.930;3.140;2023-02-11T00:46:26;12.67;;;6.77;;
18142;SDS011;9197;50.930;3.140;2023-02-11T00:48:54;14.03;;;7.33;;
18142;SDS011;9197;50.930;3.140;2023-02-11T00:51:22;10.73;;;6.77;;
18142;SDS011;9197;50.930;3.140;2023-02-11T00:53:49;17.97;;;8.47;;
18142;SDS011;9197;50.930;3.140;2023-02-11T00:56:16;13.90;;;7.57;;
18142;SDS011;9197;50.930;3.140;2023-02-11T00:58:44;12.93;;;7.90;;
18142;SDS011;9197;50.930;3.140;2023-02-11T01:01:13;22.97;;;8.27;;
18142;SDS011;9197;50.930;3.140;2023-02-11T01:03:40;17.43;;;8.33;;
18142;SDS011;9197;50.930;3.140;2023-02-11T01:06:08;13.80;;;7.60;;
18142;SDS011;9197;50.930;3.140;2023-02-11T01:08:36;13.10;;;7.50;;
18142;SDS011;9197;50.930;3.140;2023-02-11T01:11:04;14.97;;;7.57;;
18142;SDS011;9197;50.930;3.140;2023-02-11T01:13:32;11.93;;;7.93;;
18142;SDS011;9197;50.930;3.140;2023-02-11T01:16:01;12.87;;;8.60;;
18142;SDS011;9197;50.930;3.140;2023-02-11T01:18:30;14.37;;;8.03;;
18142;SDS011;9197;50.930;3.140;2023-02-11T01:20:58;13.93;;;8.83;;
18142;SDS011;9197;50.930;3.140;2023-02-11T01:23:25;17.70;;;8.47;;
18142;SDS011;9197;50.930;3.140;2023-02-11T01:25:52;16.97;;;9.07;;
18142;SDS011;9197;50.930;3.140;2023-02-11T01:28:20;15.90;;;8.40;;
18142;SDS011;9197;50.930;3.140;2023-02-11T01:30:48;15.20;;;8.30;;
18142;SDS011;9197;50.930;3.140;2023-02-11T01:33:16;13.40;;;7.87;;
18142;SDS011;9197;50.930;3.140;2023-02-11T01:35:45;19.63;;;9.23;;
18142;SDS011;9197;50.930;3.140;2023-02-11T01:38:14;16.00;;;8.53;;
18142;SDS011;9197;50.930;3.140;2023-02-11T01:40:45;16.93;;;9.37;;
18142;SDS011;9197;50.930;3.140;2023-02-11T01:43:12;13.83;;;8.83;;
18142;SDS011;9197;50.930;3.140;2023-02-11T01:48:23;10.57;;;7.63;;
18142;SDS011;9197;50.930;3.140;2023-02-11T01:50:54;17.33;;;8.53;;
18142;SDS011;9197;50.930;3.140;2023-02-11T01:53:23;11.90;;;9.67;;
18142;SDS011;9197;50.930;3.140;2023-02-11T01:56:08;17.40;;;9.63;;
18142;SDS011;9197;50.930;3.140;2023-02-11T01:58:54;17.47;;;8.83;;
18142;SDS011;9197;50.930;3.140;2023-02-11T02:01:25;14.90;;;9.23;;
18142;SDS011;9197;50.930;3.140;2023-02-11T02:03:53;17.00;;;8.17;;
18142;SDS011;9197;50.930;3.140;2023-02-11T02:06:25;17.70;;;8.27;;
18142;SDS011;9197;50.930;3.140;2023-02-11T02:08:54;16.70;;;9.77;;
18142;SDS011;9197;50.930;3.140;2023-02-11T02:11:23;14.93;;;9.33;;
18142;SDS011;9197;50.930;3.140;2023-02-11T02:13:50;17.10;;;9.40;;
18142;SDS011;9197;50.930;3.140;2023-02-11T02:16:18;16.20;;;10.17;;
18142;SDS011;9197;50.930;3.140;2023-02-11T02:18:48;14.77;;;9.60;;
18142;SDS011;9197;50.930;3.140;2023-02-11T02:21:21;15.83;;;8.83;;
18142;SDS011;9197;50.930;3.140;2023-02-11T02:32:31;14.50;;;9.23;;
18142;SDS011;9197;50.930;3.140;2023-02-11T02:35:01;14.47;;;9.23;;
18142;SDS011;9197;50.930;3.140;2023-02-11T02:37:33;14.17;;;8.77;;
18142;SDS011;9197;50.930;3.140;2023-02-11T02:40:02;16.63;;;9.33;;
18142;SDS011;9197;50.930;3.140;2023-02-11T02:42:31;11.33;;;8.90;;
18142;SDS011;9197;50.930;3.140;2023-02-11T02:44:58;15.73;;;8.93;;
18142;SDS011;9197;50.930;3.140;2023-02-11T02:47:26;12.83;;;9.20;;
18142;SDS011;9197;50.930;3.140;2023-02-11T02:49:55;15.27;;;9.33;;
18142;SDS011;9197;50.930;3.140;2023-02-11T02:52:26;15.07;;;9.90;;
18142;SDS011;9197;50.930;3.140;2023-02-11T02:57:57;9.33;;;8.37;;
18142;SDS011;9197;50.930;3.140;2023-02-11T03:00:30;15.57;;;8.80;;
18142;SDS011;9197;50.930;3.140;2023-02-11T03:03:04;19.97;;;10.80;;
18142;SDS011;9197;50.930;3.140;2023-02-11T03:05:41;14.97;;;9.60;;
18142;SDS011;9197;50.930;3.140;2023-02-11T03:08:14;15.00;;;9.77;;
18142;SDS011;9197;50.930;3.140;2023-02-11T03:10:43;14.77;;;11.70;;
18142;SDS011;9197;50.930;3.140;2023-02-11T03:13:10;15.07;;;9.93;;
18142;SDS011;9197;50.930;3.140;2023-02-11T03:15:41;16.17;;;9.97;;
18142;SDS011;9197;50.930;3.140;2023-02-11T03:18:10;16.53;;;10.00;;
18142;SDS011;9197;50.930;3.140;2023-02-11T03:20:40;14.13;;;9.40;;
18142;SDS011;9197;50.930;3.140;2023-02-11T03:23:10;20.47;;;10.53;;
18142;SDS011;9197;50.930;3.140;2023-02-11T03:25:40;17.53;;;10.47;;
18142;SDS011;9197;50.930;3.140;2023-02-11T03:28:10;12.60;;;10.07;;
18142;SDS011;9197;50.930;3.140;2023-02-11T03:30:41;13.47;;;10.00;;
18142;SDS011;9197;50.930;3.140;2023-02-11T03:33:11;16.17;;;9.50;;
18142;SDS011;9197;50.930;3.140;2023-02-11T03:35:42;14.60;;;10.60;;
18142;SDS011;9197;50.930;3.140;2023-02-11T03:38:13;11.80;;;9.83;;
18142;SDS011;9197;50.930;3.140;2023-02-11T03:40:41;13.67;;;9.87;;
18142;SDS011;9197;50.930;3.140;2023-02-11T03:43:11;12.67;;;9.77;;
18142;SDS011;9197;50.930;3.140;2023-02-11T03:45:41;13.70;;;9.43;;
18142;SDS011;9197;50.930;3.140;2023-02-11T03:48:10;21.83;;;10.50;;
18142;SDS011;9197;50.930;3.140;2023-02-11T03:50:38;16.13;;;10.00;;
18142;SDS011;9197;50.930;3.140;2023-02-11T03:53:08;15.07;;;10.20;;
18142;SDS011;9197;50.930;3.140;2023-02-11T03:55:37;17.70;;;10.40;;
18142;SDS011;9197;50.930;3.140;2023-02-11T03:58:05;17.90;;;11.03;;
18142;SDS011;9197;50.930;3.140;2023-02-11T04:00:34;19.03;;;11.07;;
18142;SDS011;9197;50.930;3.140;2023-02-11T04:03:01;14.27;;;10.90;;
18142;SDS011;9197;50.930;3.140;2023-02-11T04:05:29;13.30;;;10.17;;
18142;SDS011;9197;50.930;3.140;2023-02-11T04:07:56;14.90;;;9.83;;
18142;SDS011;9197;50.930;3.140;2023-02-11T04:10:25;15.90;;;10.00;;
18142;SDS011;9197;50.930;3.140;2023-02-11T04:12:53;19.10;;;10.63;;
18142;SDS011;9197;50.930;3.140;2023-02-11T04:15:20;14.73;;;10.97;;
18142;SDS011;9197;50.930;3.140;2023-02-11T04:17:48;16.40;;;10.07;;
18142;SDS011;9197;50.930;3.140;2023-02-11T04:20:15;18.03;;;10.67;;
18142;SDS011;9197;50.930;3.140;2023-02-11T04:22:42;14.57;;;10.03;;
18142;SDS011;9197;50.930;3.140;2023-02-11T04:25:10;16.70;;;10.17;;
18142;SDS011;9197;50.930;3.140;2023-02-11T04:27:39;14.67;;;9.77;;
18142;SDS011;9197;50.930;3.140;2023-02-11T04:30:07;18.43;;;10.73;;
18142;SDS011;9197;50.930;3.140;2023-02-11T04:32:35;15.30;;;9.57;;
18142;SDS011;9197;50.930;3.140;2023-02-11T04:35:02;17.77;;;10.43;;
18142;SDS011;9197;50.930;3.140;2023-02-11T04:37:30;19.80;;;10.10;;
18142;SDS011;9197;50.930;3.140;2023-02-11T04:39:57;14.93;;;10.53;;
18142;SDS011;9197;50.930;3.140;2023-02-11T04:42:25;19.27;;;11.17;;
18142;SDS011;9197;50.930;3.140;2023-02-11T04:44:54;17.47;;;9.90;;
18142;SDS011;9197;50.930;3.140;2023-02-11T04:47:21;15.10;;;10.13;;
18142;SDS011;9197;50.930;3.140;2023-02-11T04:49:49;14.93;;;10.60;;
18142;SDS011;9197;50.930;3.140;2023-02-11T04:52:16;14.53;;;10.07;;
18142;SDS011;9197;50.930;3.140;2023-02-11T04:54:43;19.20;;;11.13;;
18142;SDS011;9197;50.930;3.140;2023-02-11T04:57:11;18.03;;;10.87;;
18142;SDS011;9197;50.930;3.140;2023-02-11T04:59:38;15.00;;;10.93;;
18142;SDS011;9197;50.930;3.140;2023-02-11T05:02:07;15.77;;;9.60;;
18142;SDS011;9197;50.930;3.140;2023-02-11T05:04:35;19.17;;;11.10;;
18142;SDS011;9197;50.930;3.140;2023-02-11T05:07:02;14.77;;;10.23;;
18142;SDS011;9197;50.930;3.140;2023-02-11T05:09:30;15.63;;;9.80;;
18142;SDS011;9197;50.930;3.140;2023-02-11T05:11:57;15.17;;;10.60;;
18142;SDS011;9197;50.930;3.140;2023-02-11T05:14:24;17.63;;;10.90;;
18142;SDS011;9197;50.930;3.140;2023-02-11T05:16:52;15.70;;;10.73;;
18142;SDS011;9197;50.930;3.140;2023-02-11T05:19:21;17.80;;;10.40;;
18142;SDS011;9197;50.930;3.140;2023-02-11T05:21:48;19.30;;;11.63;;
18142;SDS011;9197;50.930;3.140;2023-02-11T05:24:17;16.07;;;9.77;;
18142;SDS011;9197;50.930;3.140;2023-02-11T05:26:45;16.10;;;12.57;;
18142;SDS011;9197;50.930;3.140;2023-02-11T05:29:12;15.83;;;11.00;;
18142;SDS011;9197;50.930;3.140;2023-02-11T05:31:39;17.17;;;11.03;;
18142;SDS011;9197;50.930;3.140;2023-02-11T05:34:07;18.50;;;11.60;;
18142;SDS011;9197;50.930;3.140;2023-02-11T05:36:36;14.87;;;12.13;;
18142;SDS011;9197;50.930;3.140;2023-02-11T05:39:03;18.10;;;10.93;;
18142;SDS011;9197;50.930;3.140;2023-02-11T05:41:31;21.50;;;11.97;;
18142;SDS011;9197;50.930;3.140;2023-02-11T05:43:58;19.40;;;11.00;;
18142;SDS011;9197;50.930;3.140;2023-02-11T05:46:26;18.20;;;12.50;;
18142;SDS011;9197;50.930;3.140;2023-02-11T05:48:53;15.10;;;11.77;;
18142;SDS011;9197;50.930;3.140;2023-02-11T05:51:21;18.83;;;11.67;;
18142;SDS011;9197;50.930;3.140;2023-02-11T05:53:51;16.70;;;12.67;;
18142;SDS011;9197;50.930;3.140;2023-02-11T05:56:18;16.83;;;12.27;;
18142;SDS011;9197;50.930;3.140;2023-02-11T05:58:46;18.97;;;13.10;;
18142;SDS011;9197;50.930;3.140;2023-02-11T06:01:13;19.57;;;12.53;;
18142;SDS011;9197;50.930;3.140;2023-02-11T06:03:41;18.30;;;12.70;;
18142;SDS011;9197;50.930;3.140;2023-02-11T06:06:09;23.17;;;14.27;;
18142;SDS011;9197;50.930;3.140;2023-02-11T06:08:37;17.70;;;13.23;;
18142;SDS011;9197;50.930;3.140;2023-02-11T06:11:06;22.53;;;13.93;;
18142;SDS011;9197;50.930;3.140;2023-02-11T06:13:33;17.03;;;12.80;;
18142;SDS011;9197;50.930;3.140;2023-02-11T06:16:01;18.20;;;13.13;;
18142;SDS011;9197;50.930;3.140;2023-02-11T06:18:28;20.53;;;13.47;;
18142;SDS011;9197;50.930;3.140;2023-02-11T06:20:57;19.10;;;15.13;;
18142;SDS011;9197;50.930;3.140;2023-02-11T06:23:25;22.10;;;14.10;;
18142;SDS011;9197;50.930;3.140;2023-02-11T06:25:52;18.50;;;14.63;;
18142;SDS011;9197;50.930;3.140;2023-02-11T06:28:21;20.57;;;14.30;;
18142;SDS011;9197;50.930;3.140;2023-02-11T06:30:49;22.93;;;14.63;;
18142;SDS011;9197;50.930;3.140;2023-02-11T06:33:16;20.13;;;14.57;;
18142;SDS011;9197;50.930;3.140;2023-02-11T06:35:43;19.90;;;14.33;;
18142;SDS011;9197;50.930;3.140;2023-02-11T06:38:11;19.57;;;14.47;;
18142;SDS011;9197;50.930;3.140;2023-02-11T06:40:38;24.73;;;15.07;;
18142;SDS011;9197;50.930;3.140;2023-02-11T06:43:06;23.20;;;14.40;;
18142;SDS011;9197;50.930;3.140;2023-02-11T06:45:35;32.73;;;16.73;;
18142;SDS011;9197;50.930;3.140;2023-02-11T06:48:02;29.37;;;18.97;;
18142;SDS011;9197;50.930;3.140;2023-02-11T06:50:30;31.73;;;15.80;;
18142;SDS011;9197;50.930;3.140;2023-02-11T06:52:58;26.33;;;18.03;;
18142;SDS011;9197;50.930;3.140;2023-02-11T06:55:25;26.47;;;17.10;;
18142;SDS011;9197;50.930;3.140;2023-02-11T06:57:53;22.03;;;16.23;;
18142;SDS011;9197;50.930;3.140;2023-02-11T07:00:20;22.63;;;16.70;;
18142;SDS011;9197;50.930;3.140;2023-02-11T07:02:49;29.27;;;18.90;;
18142;SDS011;9197;50.930;3.140;2023-02-11T07:05:16;31.23;;;18.93;;
18142;SDS011;9197;50.930;3.140;2023-02-11T07:07:44;31.67;;;19.53;;
18142;SDS011;9197;50.930;3.140;2023-02-11T07:10:11;29.40;;;18.07;;
18142;SDS011;9197;50.930;3.140;2023-02-11T07:12:39;32.83;;;19.83;;
18142;SDS011;9197;50.930;3.140;2023-02-11T07:15:07;27.90;;;16.90;;
18142;SDS011;9197;50.930;3.140;2023-02-11T07:17:34;30.70;;;18.93;;
18142;SDS011;9197;50.930;3.140;2023-02-11T07:20:03;29.90;;;18.00;;
18142;SDS011;9197;50.930;3.140;2023-02-11T07:22:32;29.83;;;19.07;;
18142;SDS011;9197;50.930;3.140;2023-02-11T07:25:00;27.30;;;18.83;;
18142;SDS011;9197;50.930;3.140;2023-02-11T07:27:28;27.97;;;20.17;;
18142;SDS011;9197;50.930;3.140;2023-02-11T07:29:55;34.70;;;21.13;;
18142;SDS011;9197;50.930;3.140;2023-02-11T07:32:23;36.67;;;18.47;;
18142;SDS011;9197;50.930;3.140;2023-02-11T07:34:50;34.37;;;22.43;;
18142;SDS011;9197;50.930;3.140;2023-02-11T07:37:19;34.30;;;20.50;;
18142;SDS011;9197;50.930;3.140;2023-02-11T07:39:47;31.23;;;21.80;;
18142;SDS011;9197;50.930;3.140;2023-02-11T07:42:14;49.27;;;21.30;;
18142;SDS011;9197;50.930;3.140;2023-02-11T07:44:41;32.70;;;20.70;;
18142;SDS011;9197;50.930;3.140;2023-02-11T07:47:09;31.47;;;19.43;;
18142;SDS011;9197;50.930;3.140;2023-02-11T07:49:36;28.43;;;19.27;;
18142;SDS011;9197;50.930;3.140;2023-02-11T07:52:04;39.00;;;21.57;;
18142;SDS011;9197;50.930;3.140;2023-02-11T07:54:33;36.03;;;21.60;;
18142;SDS011;9197;50.930;3.140;2023-02-11T07:57:00;31.10;;;19.97;;
18142;SDS011;9197;50.930;3.140;2023-02-11T07:59:27;32.93;;;21.07;;
18142;SDS011;9197;50.930;3.140;2023-02-11T08:01:55;34.70;;;22.17;;
18142;SDS011;9197;50.930;3.140;2023-02-11T08:04:22;33.03;;;21.53;;
18142;SDS011;9197;50.930;3.140;2023-02-11T08:06:49;32.37;;;21.87;;
18142;SDS011;9197;50.930;3.140;2023-02-11T08:09:20;35.07;;;21.27;;
18142;SDS011;9197;50.930;3.140;2023-02-11T08:11:48;35.77;;;22.13;;
18142;SDS011;9197;50.930;3.140;2023-02-11T08:14:16;31.87;;;21.73;;
18142;SDS011;9197;50.930;3.140;2023-02-11T08:16:44;32.87;;;20.80;;
18142;SDS011;9197;50.930;3.140;2023-02-11T08:19:13;31.13;;;21.20;;
18142;SDS011;9197;50.930;3.140;2023-02-11T08:21:41;33.87;;;21.33;;
18142;SDS011;9197;50.930;3.140;2023-02-11T08:24:10;28.90;;;20.47;;
18142;SDS011;9197;50.930;3.140;2023-02-11T08:26:37;34.60;;;22.67;;
18142;SDS011;9197;50.930;3.140;2023-02-11T08:29:10;30.20;;;22.10;;
18142;SDS011;9197;50.930;3.140;2023-02-11T08:31:38;29.60;;;21.63;;
18142;SDS011;9197;50.930;3.140;2023-02-11T08:34:06;32.50;;;20.40;;
18142;SDS011;9197;50.930;3.140;2023-02-11T08:36:35;27.07;;;20.27;;
18142;SDS011;9197;50.930;3.140;2023-02-11T08:39:04;28.43;;;21.60;;
18142;SDS011;9197;50.930;3.140;2023-02-11T08:41:31;29.30;;;21.47;;
18142;SDS011;9197;50.930;3.140;2023-02-11T08:43:59;27.50;;;20.37;;
18142;SDS011;9197;50.930;3.140;2023-02-11T08:46:29;31.33;;;21.50;;
18142;SDS011;9197;50.930;3.140;2023-02-11T08:48:56;32.57;;;21.00;;
18142;SDS011;9197;50.930;3.140;2023-02-11T08:51:25;29.43;;;21.27;;
18142;SDS011;9197;50.930;3.140;2023-02-11T08:53:54;34.10;;;20.60;;
18142;SDS011;9197;50.930;3.140;2023-02-11T08:56:22;29.87;;;20.90;;
18142;SDS011;9197;50.930;3.140;2023-02-11T08:58:49;29.57;;;20.53;;
18142;SDS011;9197;50.930;3.140;2023-02-11T09:01:17;29.97;;;21.63;;
18142;SDS011;9197;50.930;3.140;2023-02-11T09:03:47;31.77;;;21.07;;
18142;SDS011;9197;50.930;3.140;2023-02-11T09:06:14;31.90;;;21.23;;
18142;SDS011;9197;50.930;3.140;2023-02-11T09:08:44;30.03;;;20.27;;
18142;SDS011;9197;50.930;3.140;2023-02-11T09:11:13;28.07;;;19.87;;
18142;SDS011;9197;50.930;3.140;2023-02-11T09:13:42;26.13;;;19.40;;
18142;SDS011;9197;50.930;3.140;2023-02-11T09:16:14;22.47;;;17.40;;
18142;SDS011;9197;50.930;3.140;2023-02-11T09:18:42;25.83;;;18.77;;
18142;SDS011;9197;50.930;3.140;2023-02-11T09:21:11;24.00;;;18.77;;
18142;SDS011;9197;50.930;3.140;2023-02-11T09:23:39;24.57;;;16.77;;
18142;SDS011;9197;50.930;3.140;2023-02-11T09:26:09;26.87;;;19.50;;
18142;SDS011;9197;50.930;3.140;2023-02-11T09:28:37;25.83;;;18.90;;
18142;SDS011;9197;50.930;3.140;2023-02-11T09:31:04;22.07;;;18.30;;
18142;SDS011;9197;50.930;3.140;2023-02-11T09:33:32;22.57;;;18.07;;
18142;SDS011;9197;50.930;3.140;2023-02-11T09:36:00;23.13;;;17.77;;
18142;SDS011;9197;50.930;3.140;2023-02-11T09:38:29;24.77;;;18.10;;
18142;SDS011;9197;50.930;3.140;2023-02-11T09:40:56;22.80;;;16.70;;
18142;SDS011;9197;50.930;3.140;2023-02-11T09:43:25;21.17;;;17.30;;
18142;SDS011;9197;50.930;3.140;2023-02-11T09:45:53;21.37;;;16.80;;
18142;SDS011;9197;50.930;3.140;2023-02-11T09:48:21;23.17;;;17.63;;
18142;SDS011;9197;50.930;3.140;2023-02-11T09:50:49;20.20;;;16.53;;
18142;SDS011;9197;50.930;3.140;2023-02-11T09:53:19;21.43;;;15.37;;
18142;SDS011;9197;50.930;3.140;2023-02-11T09:55:50;24.70;;;15.83;;
18142;SDS011;9197;50.930;3.140;2023-02-11T09:58:21;17.17;;;14.40;;
18142;SDS011;9197;50.930;3.140;2023-02-11T10:00:50;19.40;;;15.13;;
18142;SDS011;9197;50.930;3.140;2023-02-11T10:03:29;23.23;;;17.47;;
18142;SDS011;9197;50.930;3.140;2023-02-11T10:06:08;18.60;;;16.33;;
18142;SDS011;9197;50.930;3.140;2023-02-11T10:08:39;20.17;;;15.47;;
18142;SDS011;9197;50.930;3.140;2023-02-11T10:11:10;18.33;;;15.13;;
18142;SDS011;9197;50.930;3.140;2023-02-11T10:13:45;17.10;;;14.73;;
18142;SDS011;9197;50.930;3.140;2023-02-11T10:16:17;18.27;;;14.40;;
18142;SDS011;9197;50.930;3.140;2023-02-11T10:18:52;19.20;;;15.23;;
18142;SDS011;9197;50.930;3.140;2023-02-11T10:21:28;17.33;;;14.33;;
18142;SDS011;9197;50.930;3.140;2023-02-11T10:23:59;16.43;;;13.70;;
18142;SDS011;9197;50.930;3.140;2023-02-11T10:26:31;18.60;;;15.83;;
18142;SDS011;9197;50.930;3.140;2023-02-11T10:28:59;21.73;;;15.90;;
18142;SDS011;9197;50.930;3.140;2023-02-11T10:31:33;18.97;;;14.77;;
18142;SDS011;9197;50.930;3.140;2023-02-11T10:34:02;19.20;;;13.57;;
18142;SDS011;9197;50.930;3.140;2023-02-11T10:36:32;17.00;;;13.73;;
18142;SDS011;9197;50.930;3.140;2023-02-11T10:39:00;19.20;;;15.13;;
18142;SDS011;9197;50.930;3.140;2023-02-11T10:41:30;20.33;;;14.87;;
18142;SDS011;9197;50.930;3.140;2023-02-11T10:44:00;19.27;;;13.97;;
18142;SDS011;9197;50.930;3.140;2023-02-11T10:46:28;14.80;;;13.13;;
18142;SDS011;9197;50.930;3.140;2023-02-11T10:48:57;21.07;;;14.63;;
18142;SDS011;9197;50.930;3.140;2023-02-11T10:51:25;16.07;;;12.43;;
18142;SDS011;9197;50.930;3.140;2023-02-11T10:54:09;18.70;;;14.13;;
18142;SDS011;9197;50.930;3.140;2023-02-11T10:56:39;19.30;;;14.00;;
18142;SDS011;9197;50.930;3.140;2023-02-11T10:59:13;16.03;;;13.67;;
18142;SDS011;9197;50.930;3.140;2023-02-11T11:01:42;18.27;;;14.33;;
18142;SDS011;9197;50.930;3.140;2023-02-11T11:07:10;17.20;;;13.10;;
18142;SDS011;9197;50.930;3.140;2023-02-11T11:09:42;16.57;;;13.30;;
18142;SDS011;9197;50.930;3.140;2023-02-11T11:12:22;18.20;;;14.10;;
18142;SDS011;9197;50.930;3.140;2023-02-11T11:14:54;15.57;;;12.87;;
18142;SDS011;9197;50.930;3.140;2023-02-11T11:17:22;17.23;;;14.50;;
18142;SDS011;9197;50.930;3.140;2023-02-11T11:19:53;16.33;;;13.33;;
18142;SDS011;9197;50.930;3.140;2023-02-11T11:22:21;15.57;;;12.23;;
18142;SDS011;9197;50.930;3.140;2023-02-11T11:24:48;14.90;;;13.27;;
18142;SDS011;9197;50.930;3.140;2023-02-11T11:27:20;15.27;;;12.97;;
18142;SDS011;9197;50.930;3.140;2023-02-11T11:29:50;15.10;;;12.63;;
18142;SDS011;9197;50.930;3.140;2023-02-11T11:32:20;17.90;;;12.73;;
18142;SDS011;9197;50.930;3.140;2023-02-11T11:34:49;14.30;;;12.33;;
18142;SDS011;9197;50.930;3.140;2023-02-11T11:37:22;17.73;;;13.10;;
18142;SDS011;9197;50.930;3.140;2023-02-11T11:39:52;13.60;;;12.20;;
18142;SDS011;9197;50.930;3.140;2023-02-11T11:42:23;15.87;;;11.13;;
18142;SDS011;9197;50.930;3.140;2023-02-11T11:44:55;15.87;;;12.40;;
18142;SDS011;9197;50.930;3.140;2023-02-11T11:47:30;17.07;;;12.37;;
18142;SDS011;9197;50.930;3.140;2023-02-11T11:50:08;18.60;;;11.83;;
18142;SDS011;9197;50.930;3.140;2023-02-11T11:52:39;15.60;;;12.97;;
18142;SDS011;9197;50.930;3.140;2023-02-11T11:55:12;15.37;;;12.47;;
18142;SDS011;9197;50.930;3.140;2023-02-11T11:57:40;15.67;;;12.60;;
18142;SDS011;9197;50.930;3.140;2023-02-11T12:00:13;16.10;;;12.77;;
18142;SDS011;9197;50.930;3.140;2023-02-11T12:05:35;15.33;;;12.37;;
18142;SDS011;9197;50.930;3.140;2023-02-11T12:08:07;17.00;;;12.30;;
18142;SDS011;9197;50.930;3.140;2023-02-11T12:10:46;15.43;;;12.93;;
18142;SDS011;9197;50.930;3.140;2023-02-11T12:13:25;16.80;;;12.70;;
18142;SDS011;9197;50.930;3.140;2023-02-11T12:15:59;18.83;;;13.47;;
18142;SDS011;9197;50.930;3.140;2023-02-11T12:18:38;15.97;;;12.30;;
18142;SDS011;9197;50.930;3.140;2023-02-11T12:21:18;15.63;;;13.23;;
18142;SDS011;9197;50.930;3.140;2023-02-11T12:23:53;16.93;;;13.80;;
18142;SDS011;9197;50.930;3.140;2023-02-11T12:26:21;14.73;;;12.00;;
18142;SDS011;9197;50.930;3.140;2023-02-11T12:28:52;25.00;;;13.87;;
18142;SDS011;9197;50.930;3.140;2023-02-11T12:31:26;18.00;;;13.23;;
18142;SDS011;9197;50.930;3.140;2023-02-11T12:34:00;17.00;;;13.73;;
18142;SDS011;9197;50.930;3.140;2023-02-11T12:36:36;15.53;;;13.03;;
18142;SDS011;9197;50.930;3.140;2023-02-11T12:39:11;17.07;;;12.87;;
18142;SDS011;9197;50.930;3.140;2023-02-11T12:41:47;16.83;;;13.17;;
18142;SDS011;9197;50.930;3.140;2023-02-11T12:44:38;14.63;;;13.07;;
18142;SDS011;9197;50.930;3.140;2023-02-11T12:47:08;16.83;;;14.07;;
18142;SDS011;9197;50.930;3.140;2023-02-11T12:49:48;18.50;;;13.47;;
18142;SDS011;9197;50.930;3.140;2023-02-11T12:52:26;19.10;;;14.20;;
18142;SDS011;9197;50.930;3.140;2023-02-11T12:54:59;16.17;;;12.80;;
18142;SDS011;9197;50.930;3.140;2023-02-11T12:57:28;16.37;;;13.50;;
18142;SDS011;9197;50.930;3.140;2023-02-11T12:59:57;17.17;;;13.43;;
18142;SDS011;9197;50.930;3.140;2023-02-11T13:02:28;16.30;;;13.70;;
18142;SDS011;9197;50.930;3.140;2023-02-11T13:05:00;19.13;;;13.80;;
18142;SDS011;9197;50.930;3.140;2023-02-11T13:07:32;14.93;;;13.27;;
18142;SDS011;9197;50.930;3.140;2023-02-11T13:10:02;18.63;;;14.10;;
18142;SDS011;9197;50.930;3.140;2023-02-11T13:12:31;19.33;;;15.43;;
18142;SDS011;9197;50.930;3.140;2023-02-11T13:15:17;19.63;;;13.33;;
18142;SDS011;9197;50.930;3.140;2023-02-11T13:17:47;18.27;;;13.20;;
18142;SDS011;9197;50.930;3.140;2023-02-11T13:20:20;16.17;;;13.23;;
18142;SDS011;9197;50.930;3.140;2023-02-11T13:22:54;17.57;;;15.27;;
18142;SDS011;9197;50.930;3.140;2023-02-11T13:25:24;17.90;;;15.90;;
18142;SDS011;9197;50.930;3.140;2023-02-11T13:27:56;15.90;;;13.93;;
18142;SDS011;9197;50.930;3.140;2023-02-11T13:30:26;15.67;;;13.00;;
18142;SDS011;9197;50.930;3.140;2023-02-11T13:33:01;16.97;;;14.90;;
18142;SDS011;9197;50.930;3.140;2023-02-11T13:35:29;14.57;;;12.47;;
18142;SDS011;9197;50.930;3.140;2023-02-11T13:37:58;18.50;;;14.10;;
18142;SDS011;9197;50.930;3.140;2023-02-11T13:40:27;17.73;;;13.13;;
18142;SDS011;9197;50.930;3.140;2023-02-11T13:42:56;18.30;;;14.13;;
18142;SDS011;9197;50.930;3.140;2023-02-11T13:45:27;14.53;;;12.53;;
18142;SDS011;9197;50.930;3.140;2023-02-11T13:47:55;17.50;;;15.43;;
18142;SDS011;9197;50.930;3.140;2023-02-11T13:50:23;16.07;;;13.13;;
18142;SDS011;9197;50.930;3.140;2023-02-11T13:52:55;16.27;;;14.60;;
18142;SDS011;9197;50.930;3.140;2023-02-11T13:55:24;18.73;;;15.23;;
18142;SDS011;9197;50.930;3.140;2023-02-11T14:00:45;17.50;;;13.77;;
18142;SDS011;9197;50.930;3.140;2023-02-11T14:03:24;17.03;;;13.83;;
18142;SDS011;9197;50.930;3.140;2023-02-11T14:06:10;18.20;;;13.80;;
18142;SDS011;9197;50.930;3.140;2023-02-11T14:08:59;18.50;;;13.90;;
18142;SDS011;9197;50.930;3.140;2023-02-11T14:11:46;19.33;;;15.70;;
18142;SDS011;9197;50.930;3.140;2023-02-11T14:14:23;16.40;;;14.37;;
18142;SDS011;9197;50.930;3.140;2023-02-11T14:19:48;17.83;;;13.77;;
18142;SDS011;9197;50.930;3.140;2023-02-11T14:22:16;14.77;;;13.10;;
18142;SDS011;9197;50.930;3.140;2023-02-11T14:24:48;19.23;;;14.27;;
18142;SDS011;9197;50.930;3.140;2023-02-11T14:27:19;17.80;;;14.40;;
18142;SDS011;9197;50.930;3.140;2023-02-11T14:29:54;17.50;;;14.57;;
18142;SDS011;9197;50.930;3.140;2023-02-11T14:32:28;15.03;;;13.07;;
18142;SDS011;9197;50.930;3.140;2023-02-11T14:35:03;19.93;;;14.57;;
18142;SDS011;9197;50.930;3.140;2023-02-11T14:37:36;16.67;;;14.87;;
18142;SDS011;9197;50.930;3.140;2023-02-11T14:40:15;16.60;;;14.03;;
18142;SDS011;9197;50.930;3.140;2023-02-11T14:42:45;15.10;;;12.80;;
18142;SDS011;9197;50.930;3.140;2023-02-11T14:45:15;16.53;;;13.17;;
18142;SDS011;9197;50.930;3.140;2023-02-11T14:47:45;19.33;;;14.00;;
18142;SDS011;9197;50.930;3.140;2023-02-11T14:50:17;18.50;;;13.10;;
18142;SDS011;9197;50.930;3.140;2023-02-11T14:52:45;17.53;;;13.73;;
18142;SDS011;9197;50.930;3.140;2023-02-11T14:55:14;15.17;;;12.87;;
18142;SDS011;9197;50.930;3.140;2023-02-11T14:57:42;15.20;;;13.33;;
18142;SDS011;9197;50.930;3.140;2023-02-11T15:00:16;20.10;;;15.70;;
18142;SDS011;9197;50.930;3.140;2023-02-11T15:02:46;19.17;;;15.03;;
18142;SDS011;9197;50.930;3.140;2023-02-11T15:05:14;16.40;;;12.43;;
18142;SDS011;9197;50.930;3.140;2023-02-11T15:07:44;15.00;;;13.40;;
18142;SDS011;9197;50.930;3.140;2023-02-11T15:10:15;20.50;;;13.67;;
18142;SDS011;9197;50.930;3.140;2023-02-11T15:12:44;22.50;;;16.60;;
18142;SDS011;9197;50.930;3.140;2023-02-11T15:15:14;18.07;;;12.10;;
18142;SDS011;9197;50.930;3.140;2023-02-11T15:17:43;14.13;;;12.63;;
18142;SDS011;9197;50.930;3.140;2023-02-11T15:20:15;17.07;;;11.80;;